sensor_id;sensor_type;location;lat;lon;timestamp;P1;durP1;ratioP1;P2;durP2;ratioP2
826;SDS011;395;48.132;11.608;2023-02-14T00:00:16;23.10;;;14.75;;
826;SDS011;395;48.132;11.608;2023-02-14T00:02:42;20.10;;;14.20;;
826;SDS011;395;48.132;11.608;2023-02-14T00:05:08;18.47;;;14.00;;
826;SDS011;395;48.132;11.608;2023-02-14T00:07:34;18.13;;;14.30;;
826;SDS011;395;48.132;11.608;2023-02-14T00:09:59;22.60;;;14.23;;
826;SDS011;395;48.132;11.608;2023-02-14T00:12:25;22.73;;;15.17;;
826;SDS011;395;48.132;11.608;2023-02-14T00:14:51;22.57;;;14.43;;
826;SDS011;395;48.132;11.608;2023-02-14T00:17:35;20.50;;;14.70;;
826;SDS011;395;48.132;11.608;2023-02-14T00:20:01;21.70;;;14.80;;
826;SDS011;395;48.132;11.608;2023-02-14T00:22:28;21.20;;;15.07;;
826;SDS011;395;48.132;11.608;2023-02-14T00:24:53;18.50;;;13.63;;
826;SDS011;395;48.132;11.608;2023-02-14T00:27:19;19.80;;;14.23;;
826;SDS011;395;48.132;11.608;2023-02-14T00:29:45;20.43;;;14.17;;
826;SDS011;395;48.132;11.608;2023-02-14T00:32:10;22.23;;;14.87;;
826;SDS011;395;48.132;11.608;2023-02-14T00:34:36;21.50;;;14.73;;
826;SDS011;395;48.132;11.608;2023-02-14T00:37:02;22.70;;;15.20;;
826;SDS011;395;48.132;11.608;2023-02-14T00:39:28;20.67;;;14.32;;
826;SDS011;395;48.132;11.608;2023-02-14T00:41:54;24.63;;;15.80;;
826;SDS011;395;48.132;11.608;2023-02-14T00:44:19;21.53;;;16.20;;
826;SDS011;395;48.132;11.608;2023-02-14T00:46:45;20.73;;;15.27;;
826;SDS011;395;48.132;11.608;2023-02-14T00:49:11;21.17;;;15.33;;
826;SDS011;395;48.132;11.608;2023-02-14T00:51:36;23.00;;;14.10;;
826;SDS011;395;48.132;11.608;2023-02-14T00:54:02;23.00;;;15.80;;
826;SDS011;395;48.132;11.608;2023-02-14T00:56:28;31.70;;;15.57;;
826;SDS011;395;48.132;11.608;2023-02-14T00:58:54;19.57;;;14.93;;
826;SDS011;395;48.132;11.608;2023-02-14T01:01:19;20.73;;;14.73;;
826;SDS011;395;48.132;11.608;2023-02-14T01:03:45;23.30;;;15.93;;
826;SDS011;395;48.132;11.608;2023-02-14T01:06:12;21.30;;;16.25;;
826;SDS011;395;48.132;11.608;2023-02-14T01:08:37;21.10;;;15.23;;
826;SDS011;395;48.132;11.608;2023-02-14T01:11:08;23.20;;;15.63;;
826;SDS011;395;48.132;11.608;2023-02-14T01:13:36;21.42;;;15.50;;
826;SDS011;395;48.132;11.608;2023-02-14T01:16:09;18.50;;;14.13;;
826;SDS011;395;48.132;11.608;2023-02-14T01:18:37;25.48;;;14.18;;
826;SDS011;395;48.132;11.608;2023-02-14T01:21:16;19.42;;;14.23;;
826;SDS011;395;48.132;11.608;2023-02-14T01:23:47;20.02;;;14.23;;
826;SDS011;395;48.132;11.608;2023-02-14T01:26:14;23.15;;;14.45;;
826;SDS011;395;48.132;11.608;2023-02-14T01:28:40;18.63;;;13.98;;
826;SDS011;395;48.132;11.608;2023-02-14T01:31:07;18.48;;;13.75;;
826;SDS011;395;48.132;11.608;2023-02-14T01:33:35;19.65;;;13.85;;
826;SDS011;395;48.132;11.608;2023-02-14T01:36:02;19.00;;;13.80;;
826;SDS011;395;48.132;11.608;2023-02-14T01:38:28;18.55;;;13.05;;
826;SDS011;395;48.132;11.608;2023-02-14T01:40:53;16.90;;;13.60;;
826;SDS011;395;48.132;11.608;2023-02-14T01:43:19;20.23;;;14.03;;
826;SDS011;395;48.132;11.608;2023-02-14T01:45:45;19.57;;;13.50;;
826;SDS011;395;48.132;11.608;2023-02-14T01:48:11;20.43;;;15.07;;
826;SDS011;395;48.132;11.608;2023-02-14T01:50:38;22.13;;;14.48;;
826;SDS011;395;48.132;11.608;2023-02-14T01:53:11;20.90;;;14.52;;
826;SDS011;395;48.132;11.608;2023-02-14T01:55:45;19.83;;;14.35;;
826;SDS011;395;48.132;11.608;2023-02-14T01:58:16;20.33;;;15.27;;
826;SDS011;395;48.132;11.608;2023-02-14T02:00:45;18.23;;;13.55;;
826;SDS011;395;48.132;11.608;2023-02-14T02:03:33;17.70;;;13.18;;
826;SDS011;395;48.132;11.608;2023-02-14T02:06:12;19.48;;;13.88;;
826;SDS011;395;48.132;11.608;2023-02-14T02:08:57;19.95;;;14.30;;
826;SDS011;395;48.132;11.608;2023-02-14T02:11:24;20.55;;;13.85;;
826;SDS011;395;48.132;11.608;2023-02-14T02:13:50;19.40;;;13.60;;
826;SDS011;395;48.132;11.608;2023-02-14T02:16:26;19.00;;;13.37;;
826;SDS011;395;48.132;11.608;2023-02-14T02:24:19;17.27;;;12.77;;
826;SDS011;395;48.132;11.608;2023-02-14T02:32:42;14.77;;;11.10;;
826;SDS011;395;48.132;11.608;2023-02-14T02:49:10;16.60;;;12.32;;
826;SDS011;395;48.132;11.608;2023-02-14T02:55:27;17.10;;;12.35;;
826;SDS011;395;48.132;11.608;2023-02-14T02:58:21;15.00;;;11.20;;
826;SDS011;395;48.132;11.608;2023-02-14T03:00:49;17.55;;;11.82;;
826;SDS011;395;48.132;11.608;2023-02-14T03:03:17;17.20;;;13.00;;
826;SDS011;395;48.132;11.608;2023-02-14T03:06:04;16.63;;;12.32;;
826;SDS011;395;48.132;11.608;2023-02-14T03:08:30;15.32;;;11.75;;
826;SDS011;395;48.132;11.608;2023-02-14T03:10:56;18.73;;;12.87;;
826;SDS011;395;48.132;11.608;2023-02-14T03:21:30;13.95;;;11.13;;
826;SDS011;395;48.132;11.608;2023-02-14T03:24:04;17.15;;;12.30;;
826;SDS011;395;48.132;11.608;2023-02-14T03:32:12;16.98;;;12.18;;
826;SDS011;395;48.132;11.608;2023-02-14T03:34:50;15.15;;;12.55;;
826;SDS011;395;48.132;11.608;2023-02-14T03:37:37;16.23;;;12.23;;
826;SDS011;395;48.132;11.608;2023-02-14T03:42:42;18.15;;;12.50;;
826;SDS011;395;48.132;11.608;2023-02-14T03:45:34;15.82;;;11.13;;
826;SDS011;395;48.132;11.608;2023-02-14T03:48:05;18.15;;;12.95;;
826;SDS011;395;48.132;11.608;2023-02-14T03:50:34;16.73;;;11.07;;
826;SDS011;395;48.132;11.608;2023-02-14T03:53:02;16.58;;;11.45;;
826;SDS011;395;48.132;11.608;2023-02-14T03:55:35;18.05;;;12.65;;
826;SDS011;395;48.132;11.608;2023-02-14T03:58:21;16.77;;;11.85;;
826;SDS011;395;48.132;11.608;2023-02-14T04:00:52;15.90;;;11.70;;
826;SDS011;395;48.132;11.608;2023-02-14T04:03:23;15.30;;;11.60;;
826;SDS011;395;48.132;11.608;2023-02-14T04:05:51;15.18;;;11.75;;
826;SDS011;395;48.132;11.608;2023-02-14T04:08:21;15.32;;;11.60;;
826;SDS011;395;48.132;11.608;2023-02-14T04:10:51;13.55;;;10.50;;
826;SDS011;395;48.132;11.608;2023-02-14T04:13:17;14.32;;;10.88;;
826;SDS011;395;48.132;11.608;2023-02-14T04:15:43;14.90;;;11.27;;
826;SDS011;395;48.132;11.608;2023-02-14T04:18:09;14.70;;;11.20;;
826;SDS011;395;48.132;11.608;2023-02-14T04:20:53;16.20;;;12.48;;
826;SDS011;395;48.132;11.608;2023-02-14T04:23:19;16.87;;;11.90;;
826;SDS011;395;48.132;11.608;2023-02-14T04:25:45;15.37;;;11.70;;
826;SDS011;395;48.132;11.608;2023-02-14T04:28:11;17.97;;;12.60;;
826;SDS011;395;48.132;11.608;2023-02-14T04:30:36;15.70;;;11.85;;
826;SDS011;395;48.132;11.608;2023-02-14T04:33:03;15.83;;;11.60;;
826;SDS011;395;48.132;11.608;2023-02-14T04:35:29;15.85;;;11.57;;
826;SDS011;395;48.132;11.608;2023-02-14T04:37:55;20.20;;;12.73;;
826;SDS011;395;48.132;11.608;2023-02-14T04:40:21;21.50;;;13.43;;
826;SDS011;395;48.132;11.608;2023-02-14T04:42:46;16.60;;;12.07;;
826;SDS011;395;48.132;11.608;2023-02-14T04:45:12;19.30;;;13.23;;
826;SDS011;395;48.132;11.608;2023-02-14T04:47:39;18.58;;;13.68;;
826;SDS011;395;48.132;11.608;2023-02-14T04:50:04;19.83;;;13.00;;
826;SDS011;395;48.132;11.608;2023-02-14T04:52:31;17.75;;;12.65;;
826;SDS011;395;48.132;11.608;2023-02-14T04:54:56;21.87;;;14.17;;
826;SDS011;395;48.132;11.608;2023-02-14T04:57:22;15.87;;;12.00;;
826;SDS011;395;48.132;11.608;2023-02-14T04:59:48;16.07;;;12.03;;
826;SDS011;395;48.132;11.608;2023-02-14T05:02:13;18.00;;;13.40;;
826;SDS011;395;48.132;11.608;2023-02-14T05:04:39;16.70;;;12.20;;
826;SDS011;395;48.132;11.608;2023-02-14T05:07:05;21.13;;;13.63;;
826;SDS011;395;48.132;11.608;2023-02-14T05:09:30;28.50;;;12.70;;
826;SDS011;395;48.132;11.608;2023-02-14T05:11:56;17.87;;;11.80;;
826;SDS011;395;48.132;11.608;2023-02-14T05:14:22;16.63;;;12.90;;
826;SDS011;395;48.132;11.608;2023-02-14T05:16:47;17.90;;;12.07;;
826;SDS011;395;48.132;11.608;2023-02-14T05:19:13;17.97;;;12.77;;
826;SDS011;395;48.132;11.608;2023-02-14T05:21:38;17.17;;;12.10;;
826;SDS011;395;48.132;11.608;2023-02-14T05:24:04;17.63;;;12.67;;
826;SDS011;395;48.132;11.608;2023-02-14T05:26:30;17.07;;;11.57;;
826;SDS011;395;48.132;11.608;2023-02-14T05:28:55;20.30;;;13.17;;
826;SDS011;395;48.132;11.608;2023-02-14T05:31:21;17.83;;;12.30;;
826;SDS011;395;48.132;11.608;2023-02-14T05:33:47;22.50;;;12.67;;
826;SDS011;395;48.132;11.608;2023-02-14T05:36:13;17.67;;;12.10;;
826;SDS011;395;48.132;11.608;2023-02-14T05:38:38;17.80;;;12.03;;
826;SDS011;395;48.132;11.608;2023-02-14T05:41:04;18.00;;;12.27;;
826;SDS011;395;48.132;11.608;2023-02-14T05:43:30;16.50;;;12.10;;
826;SDS011;395;48.132;11.608;2023-02-14T05:45:56;17.33;;;12.50;;
826;SDS011;395;48.132;11.608;2023-02-14T05:48:22;16.08;;;12.13;;
826;SDS011;395;48.132;11.608;2023-02-14T05:50:47;15.70;;;11.43;;
826;SDS011;395;48.132;11.608;2023-02-14T05:53:13;25.73;;;12.60;;
826;SDS011;395;48.132;11.608;2023-02-14T05:55:39;14.70;;;11.48;;
826;SDS011;395;48.132;11.608;2023-02-14T05:58:05;17.73;;;12.53;;
826;SDS011;395;48.132;11.608;2023-02-14T06:00:31;17.90;;;13.68;;
826;SDS011;395;48.132;11.608;2023-02-14T06:02:58;16.77;;;12.55;;
826;SDS011;395;48.132;11.608;2023-02-14T06:05:24;23.37;;;14.50;;
826;SDS011;395;48.132;11.608;2023-02-14T06:07:51;21.98;;;13.70;;
826;SDS011;395;48.132;11.608;2023-02-14T06:10:17;20.65;;;13.90;;
826;SDS011;395;48.132;11.608;2023-02-14T06:12:48;18.98;;;13.25;;
826;SDS011;395;48.132;11.608;2023-02-14T06:15:14;20.20;;;13.68;;
826;SDS011;395;48.132;11.608;2023-02-14T06:17:40;20.90;;;13.73;;
826;SDS011;395;48.132;11.608;2023-02-14T06:20:06;16.30;;;12.10;;
826;SDS011;395;48.132;11.608;2023-02-14T06:22:36;19.08;;;13.15;;
826;SDS011;395;48.132;11.608;2023-02-14T06:25:03;16.40;;;12.02;;
826;SDS011;395;48.132;11.608;2023-02-14T06:27:29;18.30;;;12.95;;
826;SDS011;395;48.132;11.608;2023-02-14T06:29:56;15.93;;;12.50;;
826;SDS011;395;48.132;11.608;2023-02-14T06:32:22;17.98;;;12.50;;
826;SDS011;395;48.132;11.608;2023-02-14T06:34:48;19.00;;;13.15;;
826;SDS011;395;48.132;11.608;2023-02-14T06:37:13;18.03;;;13.20;;
826;SDS011;395;48.132;11.608;2023-02-14T06:39:39;21.70;;;13.13;;
826;SDS011;395;48.132;11.608;2023-02-14T06:42:05;17.27;;;12.20;;
826;SDS011;395;48.132;11.608;2023-02-14T06:44:30;23.50;;;13.63;;
826;SDS011;395;48.132;11.608;2023-02-14T06:46:56;21.07;;;11.67;;
826;SDS011;395;48.132;11.608;2023-02-14T06:49:22;20.83;;;13.00;;
826;SDS011;395;48.132;11.608;2023-02-14T06:51:48;19.67;;;13.40;;
826;SDS011;395;48.132;11.608;2023-02-14T06:54:14;17.15;;;11.77;;
826;SDS011;395;48.132;11.608;2023-02-14T06:56:40;17.47;;;12.50;;
826;SDS011;395;48.132;11.608;2023-02-14T06:59:06;18.10;;;12.20;;
826;SDS011;395;48.132;11.608;2023-02-14T07:01:31;18.90;;;12.80;;
826;SDS011;395;48.132;11.608;2023-02-14T07:03:57;16.87;;;12.50;;
826;SDS011;395;48.132;11.608;2023-02-14T07:06:23;20.87;;;13.03;;
826;SDS011;395;48.132;11.608;2023-02-14T07:08:49;18.13;;;12.63;;
826;SDS011;395;48.132;11.608;2023-02-14T07:11:14;24.10;;;12.50;;
826;SDS011;395;48.132;11.608;2023-02-14T07:13:40;17.63;;;12.57;;
826;SDS011;395;48.132;11.608;2023-02-14T07:16:07;17.67;;;12.07;;
826;SDS011;395;48.132;11.608;2023-02-14T07:18:33;17.37;;;11.70;;
826;SDS011;395;48.132;11.608;2023-02-14T07:20:59;19.23;;;13.30;;
826;SDS011;395;48.132;11.608;2023-02-14T07:23:25;21.17;;;12.50;;
826;SDS011;395;48.132;11.608;2023-02-14T07:25:50;19.50;;;11.97;;
826;SDS011;395;48.132;11.608;2023-02-14T07:28:16;15.17;;;10.93;;
826;SDS011;395;48.132;11.608;2023-02-14T07:30:41;17.87;;;11.70;;
826;SDS011;395;48.132;11.608;2023-02-14T07:33:07;20.43;;;12.97;;
826;SDS011;395;48.132;11.608;2023-02-14T07:35:33;17.50;;;12.30;;
826;SDS011;395;48.132;11.608;2023-02-14T07:37:59;21.98;;;12.52;;
826;SDS011;395;48.132;11.608;2023-02-14T07:40:25;24.95;;;12.50;;
826;SDS011;395;48.132;11.608;2023-02-14T07:42:52;19.08;;;13.23;;
826;SDS011;395;48.132;11.608;2023-02-14T07:45:19;17.98;;;12.55;;
826;SDS011;395;48.132;11.608;2023-02-14T07:47:49;15.57;;;11.35;;
826;SDS011;395;48.132;11.608;2023-02-14T07:50:16;16.40;;;11.60;;
826;SDS011;395;48.132;11.608;2023-02-14T07:52:43;16.80;;;12.02;;
826;SDS011;395;48.132;11.608;2023-02-14T07:55:09;17.55;;;12.00;;
826;SDS011;395;48.132;11.608;2023-02-14T07:57:35;17.33;;;11.85;;
826;SDS011;395;48.132;11.608;2023-02-14T08:00:01;16.00;;;11.83;;
826;SDS011;395;48.132;11.608;2023-02-14T08:02:28;17.23;;;12.05;;
826;SDS011;395;48.132;11.608;2023-02-14T08:04:54;15.93;;;11.67;;
826;SDS011;395;48.132;11.608;2023-02-14T08:07:20;18.65;;;13.05;;
826;SDS011;395;48.132;11.608;2023-02-14T08:09:46;18.17;;;12.20;;
826;SDS011;395;48.132;11.608;2023-02-14T08:12:12;21.67;;;12.45;;
826;SDS011;395;48.132;11.608;2023-02-14T08:14:57;18.45;;;12.07;;
826;SDS011;395;48.132;11.608;2023-02-14T08:17:42;15.73;;;11.00;;
826;SDS011;395;48.132;11.608;2023-02-14T08:20:08;16.57;;;12.17;;
826;SDS011;395;48.132;11.608;2023-02-14T08:22:34;13.88;;;10.70;;
826;SDS011;395;48.132;11.608;2023-02-14T08:25:00;16.63;;;11.60;;
826;SDS011;395;48.132;11.608;2023-02-14T08:27:25;15.50;;;11.93;;
826;SDS011;395;48.132;11.608;2023-02-14T08:29:51;16.00;;;12.03;;
826;SDS011;395;48.132;11.608;2023-02-14T08:32:16;15.67;;;11.87;;
826;SDS011;395;48.132;11.608;2023-02-14T08:34:45;14.90;;;11.65;;
826;SDS011;395;48.132;11.608;2023-02-14T08:37:11;20.98;;;13.07;;
826;SDS011;395;48.132;11.608;2023-02-14T08:39:37;16.92;;;11.88;;
826;SDS011;395;48.132;11.608;2023-02-14T08:42:03;18.25;;;12.18;;
826;SDS011;395;48.132;11.608;2023-02-14T08:44:29;21.38;;;12.23;;
826;SDS011;395;48.132;11.608;2023-02-14T08:46:56;18.20;;;12.70;;
826;SDS011;395;48.132;11.608;2023-02-14T08:49:22;16.27;;;11.38;;
826;SDS011;395;48.132;11.608;2023-02-14T08:51:48;16.50;;;12.10;;
826;SDS011;395;48.132;11.608;2023-02-14T08:54:13;16.07;;;12.10;;
826;SDS011;395;48.132;11.608;2023-02-14T08:56:39;17.00;;;12.10;;
826;SDS011;395;48.132;11.608;2023-02-14T08:59:05;15.73;;;11.87;;
826;SDS011;395;48.132;11.608;2023-02-14T09:01:31;14.77;;;11.23;;
826;SDS011;395;48.132;11.608;2023-02-14T09:03:57;17.20;;;11.90;;
826;SDS011;395;48.132;11.608;2023-02-14T09:06:23;17.73;;;12.30;;
826;SDS011;395;48.132;11.608;2023-02-14T09:08:49;20.03;;;12.50;;
826;SDS011;395;48.132;11.608;2023-02-14T09:11:17;15.85;;;11.57;;
826;SDS011;395;48.132;11.608;2023-02-14T09:13:46;18.98;;;12.25;;
826;SDS011;395;48.132;11.608;2023-02-14T09:16:13;17.25;;;12.20;;
826;SDS011;395;48.132;11.608;2023-02-14T09:18:41;17.00;;;12.25;;
826;SDS011;395;48.132;11.608;2023-02-14T09:21:08;17.75;;;12.98;;
826;SDS011;395;48.132;11.608;2023-02-14T09:23:35;19.27;;;12.00;;
826;SDS011;395;48.132;11.608;2023-02-14T09:26:05;18.55;;;12.13;;
826;SDS011;395;48.132;11.608;2023-02-14T09:28:33;17.38;;;11.52;;
826;SDS011;395;48.132;11.608;2023-02-14T09:31:07;16.60;;;11.93;;
826;SDS011;395;48.132;11.608;2023-02-14T09:33:37;17.67;;;12.23;;
826;SDS011;395;48.132;11.608;2023-02-14T09:36:22;18.10;;;12.10;;
826;SDS011;395;48.132;11.608;2023-02-14T09:38:48;17.90;;;13.23;;
826;SDS011;395;48.132;11.608;2023-02-14T09:41:32;21.20;;;13.40;;
826;SDS011;395;48.132;11.608;2023-02-14T09:46:52;18.92;;;12.80;;
826;SDS011;395;48.132;11.608;2023-02-14T09:49:34;23.17;;;14.43;;
826;SDS011;395;48.132;11.608;2023-02-14T09:52:03;19.13;;;13.40;;
826;SDS011;395;48.132;11.608;2023-02-14T09:54:32;20.80;;;14.43;;
826;SDS011;395;48.132;11.608;2023-02-14T09:59:30;20.35;;;14.45;;
826;SDS011;395;48.132;11.608;2023-02-14T10:04:41;20.63;;;15.02;;
826;SDS011;395;48.132;11.608;2023-02-14T10:07:25;22.15;;;13.93;;
826;SDS011;395;48.132;11.608;2023-02-14T10:12:46;24.60;;;15.85;;
826;SDS011;395;48.132;11.608;2023-02-14T10:15:24;23.02;;;15.70;;
826;SDS011;395;48.132;11.608;2023-02-14T10:20:49;20.38;;;15.18;;
826;SDS011;395;48.132;11.608;2023-02-14T10:23:23;25.27;;;15.35;;
826;SDS011;395;48.132;11.608;2023-02-14T10:28:30;20.23;;;15.18;;
826;SDS011;395;48.132;11.608;2023-02-14T10:31:04;23.58;;;16.05;;
826;SDS011;395;48.132;11.608;2023-02-14T10:34:51;25.75;;;16.02;;
826;SDS011;395;48.132;11.608;2023-02-14T10:50:55;22.83;;;16.02;;
826;SDS011;395;48.132;11.608;2023-02-14T10:56:16;22.40;;;15.67;;
826;SDS011;395;48.132;11.608;2023-02-14T10:58:47;26.92;;;17.33;;
826;SDS011;395;48.132;11.608;2023-02-14T11:01:15;24.38;;;15.05;;
826;SDS011;395;48.132;11.608;2023-02-14T11:03:52;29.08;;;17.52;;
826;SDS011;395;48.132;11.608;2023-02-14T11:06:22;21.08;;;14.55;;
826;SDS011;395;48.132;11.608;2023-02-14T11:08:48;22.83;;;15.80;;
826;SDS011;395;48.132;11.608;2023-02-14T11:13:42;24.67;;;17.90;;
826;SDS011;395;48.132;11.608;2023-02-14T11:16:10;24.02;;;16.85;;
826;SDS011;395;48.132;11.608;2023-02-14T11:18:42;23.58;;;16.52;;
826;SDS011;395;48.132;11.608;2023-02-14T11:23:48;24.55;;;15.95;;
826;SDS011;395;48.132;11.608;2023-02-14T11:26:22;24.30;;;16.10;;
826;SDS011;395;48.132;11.608;2023-02-14T11:31:30;28.65;;;17.42;;
826;SDS011;395;48.132;11.608;2023-02-14T11:33:58;27.98;;;16.70;;
826;SDS011;395;48.132;11.608;2023-02-14T11:36:25;24.70;;;16.65;;
826;SDS011;395;48.132;11.608;2023-02-14T11:39:04;28.05;;;16.52;;
826;SDS011;395;48.132;11.608;2023-02-14T11:41:48;25.20;;;16.58;;
826;SDS011;395;48.132;11.608;2023-02-14T11:44:18;23.98;;;15.70;;
826;SDS011;395;48.132;11.608;2023-02-14T11:46:47;24.42;;;17.00;;
826;SDS011;395;48.132;11.608;2023-02-14T11:49:27;25.38;;;17.23;;
826;SDS011;395;48.132;11.608;2023-02-14T11:51:59;23.63;;;16.33;;
826;SDS011;395;48.132;11.608;2023-02-14T11:54:34;27.23;;;15.90;;
826;SDS011;395;48.132;11.608;2023-02-14T11:59:47;21.67;;;15.85;;
826;SDS011;395;48.132;11.608;2023-02-14T12:02:22;23.55;;;15.80;;
826;SDS011;395;48.132;11.608;2023-02-14T12:05:43;21.85;;;16.10;;
826;SDS011;395;48.132;11.608;2023-02-14T12:08:09;23.42;;;16.42;;
826;SDS011;395;48.132;11.608;2023-02-14T12:10:35;21.25;;;15.25;;
826;SDS011;395;48.132;11.608;2023-02-14T12:15:37;23.20;;;15.88;;
826;SDS011;395;48.132;11.608;2023-02-14T12:23:12;21.08;;;14.75;;
826;SDS011;395;48.132;11.608;2023-02-14T12:25:50;19.10;;;14.05;;
826;SDS011;395;48.132;11.608;2023-02-14T12:28:26;21.33;;;15.13;;
826;SDS011;395;48.132;11.608;2023-02-14T12:30:55;25.88;;;15.50;;
826;SDS011;395;48.132;11.608;2023-02-14T12:33:21;23.92;;;15.77;;
826;SDS011;395;48.132;11.608;2023-02-14T12:36:03;20.60;;;14.43;;
826;SDS011;395;48.132;11.608;2023-02-14T12:38:53;20.88;;;14.48;;
826;SDS011;395;48.132;11.608;2023-02-14T12:42:01;22.33;;;17.00;;
826;SDS011;395;48.132;11.608;2023-02-14T12:49:58;23.77;;;15.70;;
826;SDS011;395;48.132;11.608;2023-02-14T13:09:52;20.58;;;13.98;;
826;SDS011;395;48.132;11.608;2023-02-14T13:20:51;19.17;;;14.48;;
826;SDS011;395;48.132;11.608;2023-02-14T13:23:41;18.55;;;14.10;;
826;SDS011;395;48.132;11.608;2023-02-14T13:28:48;23.17;;;14.95;;
826;SDS011;395;48.132;11.608;2023-02-14T13:31:22;17.63;;;14.30;;
826;SDS011;395;48.132;11.608;2023-02-14T13:33:56;22.23;;;14.55;;
826;SDS011;395;48.132;11.608;2023-02-14T13:36:43;19.45;;;14.45;;
826;SDS011;395;48.132;11.608;2023-02-14T13:39:11;20.95;;;14.30;;
826;SDS011;395;48.132;11.608;2023-02-14T13:41:48;19.95;;;14.68;;
826;SDS011;395;48.132;11.608;2023-02-14T13:44:38;20.60;;;14.40;;
826;SDS011;395;48.132;11.608;2023-02-14T13:47:02;22.33;;;15.45;;
826;SDS011;395;48.132;11.608;2023-02-14T13:49:32;22.65;;;14.95;;
826;SDS011;395;48.132;11.608;2023-02-14T13:52:01;21.23;;;14.30;;
826;SDS011;395;48.132;11.608;2023-02-14T13:54:39;19.38;;;13.82;;
826;SDS011;395;48.132;11.608;2023-02-14T14:02:51;21.02;;;14.52;;
826;SDS011;395;48.132;11.608;2023-02-14T14:10:45;19.65;;;12.93;;
826;SDS011;395;48.132;11.608;2023-02-14T14:19:03;18.10;;;13.00;;
826;SDS011;395;48.132;11.608;2023-02-14T14:21:35;20.75;;;13.82;;
826;SDS011;395;48.132;11.608;2023-02-14T14:30:01;18.50;;;13.65;;
826;SDS011;395;48.132;11.608;2023-02-14T14:32:30;19.63;;;13.73;;
826;SDS011;395;48.132;11.608;2023-02-14T14:37:30;16.85;;;13.10;;
826;SDS011;395;48.132;11.608;2023-02-14T14:39:59;22.30;;;15.23;;
826;SDS011;395;48.132;11.608;2023-02-14T14:42:28;23.05;;;14.73;;
826;SDS011;395;48.132;11.608;2023-02-14T14:44:59;19.98;;;13.55;;
826;SDS011;395;48.132;11.608;2023-02-14T14:47:29;23.50;;;16.25;;
826;SDS011;395;48.132;11.608;2023-02-14T14:50:12;21.98;;;13.02;;
826;SDS011;395;48.132;11.608;2023-02-14T14:52:44;21.05;;;14.75;;
826;SDS011;395;48.132;11.608;2023-02-14T14:57:53;19.90;;;14.38;;
826;SDS011;395;48.132;11.608;2023-02-14T15:00:27;19.45;;;14.00;;
826;SDS011;395;48.132;11.608;2023-02-14T15:02:56;19.67;;;13.38;;
826;SDS011;395;48.132;11.608;2023-02-14T15:11:09;19.70;;;13.93;;
826;SDS011;395;48.132;11.608;2023-02-14T15:14:03;22.97;;;14.10;;
826;SDS011;395;48.132;11.608;2023-02-14T15:17:10;18.10;;;14.48;;
826;SDS011;395;48.132;11.608;2023-02-14T15:19:33;20.70;;;14.20;;
826;SDS011;395;48.132;11.608;2023-02-14T15:22:06;21.10;;;13.90;;
826;SDS011;395;48.132;11.608;2023-02-14T15:24:42;18.23;;;13.50;;
826;SDS011;395;48.132;11.608;2023-02-14T15:27:10;20.67;;;15.30;;
826;SDS011;395;48.132;11.608;2023-02-14T15:30:00;20.15;;;13.25;;
826;SDS011;395;48.132;11.608;2023-02-14T15:32:29;17.38;;;12.20;;
826;SDS011;395;48.132;11.608;2023-02-14T15:34:57;22.60;;;14.85;;
826;SDS011;395;48.132;11.608;2023-02-14T15:37:25;18.08;;;12.50;;
826;SDS011;395;48.132;11.608;2023-02-14T15:39:52;18.20;;;12.73;;
826;SDS011;395;48.132;11.608;2023-02-14T15:42:23;18.38;;;12.88;;
826;SDS011;395;48.132;11.608;2023-02-14T15:47:53;22.60;;;14.32;;
826;SDS011;395;48.132;11.608;2023-02-14T15:50:21;25.45;;;15.23;;
826;SDS011;395;48.132;11.608;2023-02-14T15:52:52;23.23;;;14.10;;
826;SDS011;395;48.132;11.608;2023-02-14T15:55:23;27.42;;;16.60;;
826;SDS011;395;48.132;11.608;2023-02-14T15:57:54;25.95;;;14.95;;
826;SDS011;395;48.132;11.608;2023-02-14T16:00:23;28.77;;;16.85;;
826;SDS011;395;48.132;11.608;2023-02-14T16:02:53;27.83;;;15.07;;
826;SDS011;395;48.132;11.608;2023-02-14T16:05:25;22.67;;;14.90;;
826;SDS011;395;48.132;11.608;2023-02-14T16:07:55;24.58;;;15.05;;
826;SDS011;395;48.132;11.608;2023-02-14T16:10:36;20.23;;;15.00;;
826;SDS011;395;48.132;11.608;2023-02-14T16:13:03;27.85;;;16.30;;
826;SDS011;395;48.132;11.608;2023-02-14T16:15:39;25.35;;;16.15;;
826;SDS011;395;48.132;11.608;2023-02-14T16:18:35;25.90;;;16.25;;
826;SDS011;395;48.132;11.608;2023-02-14T16:21:34;25.80;;;16.30;;
826;SDS011;395;48.132;11.608;2023-02-14T16:24:29;23.17;;;15.23;;
826;SDS011;395;48.132;11.608;2023-02-14T16:26:47;26.90;;;16.58;;
826;SDS011;395;48.132;11.608;2023-02-14T16:29:15;23.52;;;16.42;;
826;SDS011;395;48.132;11.608;2023-02-14T16:34:16;28.85;;;17.33;;
826;SDS011;395;48.132;11.608;2023-02-14T16:36:42;24.80;;;16.50;;
826;SDS011;395;48.132;11.608;2023-02-14T16:39:12;27.88;;;17.98;;
826;SDS011;395;48.132;11.608;2023-02-14T16:41:44;27.50;;;17.25;;
826;SDS011;395;48.132;11.608;2023-02-14T16:44:16;25.35;;;16.85;;
826;SDS011;395;48.132;11.608;2023-02-14T16:46:43;29.05;;;19.00;;
826;SDS011;395;48.132;11.608;2023-02-14T16:49:10;23.65;;;16.92;;
826;SDS011;395;48.132;11.608;2023-02-14T16:51:37;26.85;;;17.15;;
826;SDS011;395;48.132;11.608;2023-02-14T16:54:09;29.63;;;17.83;;
826;SDS011;395;48.132;11.608;2023-02-14T16:56:40;28.58;;;18.63;;
826;SDS011;395;48.132;11.608;2023-02-14T16:59:23;28.73;;;17.85;;
826;SDS011;395;48.132;11.608;2023-02-14T17:01:49;25.35;;;17.13;;
826;SDS011;395;48.132;11.608;2023-02-14T17:04:15;26.67;;;17.17;;
826;SDS011;395;48.132;11.608;2023-02-14T17:06:42;30.00;;;17.43;;
826;SDS011;395;48.132;11.608;2023-02-14T17:09:12;25.42;;;15.85;;
826;SDS011;395;48.132;11.608;2023-02-14T17:11:41;29.38;;;18.13;;
826;SDS011;395;48.132;11.608;2023-02-14T17:14:13;30.15;;;16.85;;
826;SDS011;395;48.132;11.608;2023-02-14T17:16:41;24.70;;;17.42;;
826;SDS011;395;48.132;11.608;2023-02-14T17:19:07;34.65;;;17.00;;
826;SDS011;395;48.132;11.608;2023-02-14T17:21:33;24.23;;;15.93;;
826;SDS011;395;48.132;11.608;2023-02-14T17:23:59;32.43;;;16.70;;
826;SDS011;395;48.132;11.608;2023-02-14T17:26:26;26.23;;;17.10;;
826;SDS011;395;48.132;11.608;2023-02-14T17:28:51;24.70;;;15.93;;
826;SDS011;395;48.132;11.608;2023-02-14T17:31:17;26.33;;;16.37;;
826;SDS011;395;48.132;11.608;2023-02-14T17:33:44;26.08;;;16.45;;
826;SDS011;395;48.132;11.608;2023-02-14T17:36:11;34.43;;;18.90;;
826;SDS011;395;48.132;11.608;2023-02-14T17:38:38;22.05;;;15.98;;
826;SDS011;395;48.132;11.608;2023-02-14T17:41:14;21.70;;;15.82;;
826;SDS011;395;48.132;11.608;2023-02-14T17:43:45;22.27;;;15.45;;
826;SDS011;395;48.132;11.608;2023-02-14T17:46:11;30.08;;;15.80;;
826;SDS011;395;48.132;11.608;2023-02-14T17:48:43;27.30;;;15.70;;
826;SDS011;395;48.132;11.608;2023-02-14T17:51:10;27.98;;;16.23;;
826;SDS011;395;48.132;11.608;2023-02-14T17:53:35;32.95;;;15.60;;
826;SDS011;395;48.132;11.608;2023-02-14T17:56:03;29.00;;;16.07;;
826;SDS011;395;48.132;11.608;2023-02-14T17:58:33;24.02;;;16.75;;
826;SDS011;395;48.132;11.608;2023-02-14T18:01:10;25.10;;;16.17;;
826;SDS011;395;48.132;11.608;2023-02-14T18:03:36;23.20;;;14.52;;
826;SDS011;395;48.132;11.608;2023-02-14T18:06:03;29.00;;;16.30;;